sensor_id;sensor_type;location;lat;lon;timestamp;P1;durP1;ratioP1;P2;durP2;ratioP2
5245;SDS011;54412;51.206;6.888;2023-12-20T00:01:25;8.37;;;4.17;;
5245;SDS011;54412;51.206;6.888;2023-12-20T00:03:50;4.70;;;3.73;;
5245;SDS011;54412;51.206;6.888;2023-12-20T00:06:16;7.37;;;4.00;;
5245;SDS011;54412;51.206;6.888;2023-12-20T00:08:42;6.10;;;3.43;;
5245;SDS011;54412;51.206;6.888;2023-12-20T00:11:07;6.03;;;3.70;;
5245;SDS011;54412;51.206;6.888;2023-12-20T00:13:33;7.00;;;4.20;;
5245;SDS011;54412;51.206;6.888;2023-12-20T00:15:59;5.20;;;4.00;;
5245;SDS011;54412;51.206;6.888;2023-12-20T00:18:24;5.40;;;4.53;;
5245;SDS011;54412;51.206;6.888;2023-12-20T00:20:50;4.83;;;4.40;;
5245;SDS011;54412;51.206;6.888;2023-12-20T00:23:15;5.80;;;4.03;;
5245;SDS011;54412;51.206;6.888;2023-12-20T00:25:41;12.17;;;5.00;;
5245;SDS011;54412;51.206;6.888;2023-12-20T00:28:07;6.63;;;4.60;;
5245;SDS011;54412;51.206;6.888;2023-12-20T00:30:33;9.87;;;4.10;;
5245;SDS011;54412;51.206;6.888;2023-12-20T00:32:58;7.63;;;4.47;;
5245;SDS011;54412;51.206;6.888;2023-12-20T00:35:24;5.73;;;4.23;;
5245;SDS011;54412;51.206;6.888;2023-12-20T00:37:50;7.33;;;4.03;;
5245;SDS011;54412;51.206;6.888;2023-12-20T00:40:15;6.63;;;3.70;;
5245;SDS011;54412;51.206;6.888;2023-12-20T00:42:41;4.13;;;3.70;;
5245;SDS011;54412;51.206;6.888;2023-12-20T00:45:07;8.00;;;4.60;;
5245;SDS011;54412;51.206;6.888;2023-12-20T00:47:33;7.57;;;4.50;;
5245;SDS011;54412;51.206;6.888;2023-12-20T00:49:58;6.93;;;4.40;;
5245;SDS011;54412;51.206;6.888;2023-12-20T00:52:24;7.23;;;4.37;;
5245;SDS011;54412;51.206;6.888;2023-12-20T00:54:50;7.03;;;4.43;;
5245;SDS011;54412;51.206;6.888;2023-12-20T00:57:17;7.50;;;4.80;;
5245;SDS011;54412;51.206;6.888;2023-12-20T00:59:42;15.63;;;5.00;;
5245;SDS011;54412;51.206;6.888;2023-12-20T01:02:08;8.80;;;4.70;;
5245;SDS011;54412;51.206;6.888;2023-12-20T01:04:34;8.03;;;4.93;;
5245;SDS011;54412;51.206;6.888;2023-12-20T01:07:00;8.10;;;6.30;;
5245;SDS011;54412;51.206;6.888;2023-12-20T01:09:27;9.17;;;5.30;;
5245;SDS011;54412;51.206;6.888;2023-12-20T01:11:52;8.87;;;5.93;;
5245;SDS011;54412;51.206;6.888;2023-12-20T01:14:18;10.93;;;5.60;;
5245;SDS011;54412;51.206;6.888;2023-12-20T01:16:44;9.47;;;6.80;;
5245;SDS011;54412;51.206;6.888;2023-12-20T01:19:10;14.73;;;8.07;;
5245;SDS011;54412;51.206;6.888;2023-12-20T01:21:36;12.57;;;8.50;;
5245;SDS011;54412;51.206;6.888;2023-12-20T01:24:02;15.93;;;9.33;;
5245;SDS011;54412;51.206;6.888;2023-12-20T01:26:27;15.57;;;10.40;;
5245;SDS011;54412;51.206;6.888;2023-12-20T01:28:53;16.73;;;10.83;;
5245;SDS011;54412;51.206;6.888;2023-12-20T01:31:19;19.63;;;11.90;;
5245;SDS011;54412;51.206;6.888;2023-12-20T01:33:44;17.77;;;12.70;;
5245;SDS011;54412;51.206;6.888;2023-12-20T01:36:10;15.47;;;12.33;;
5245;SDS011;54412;51.206;6.888;2023-12-20T01:38:36;19.57;;;12.80;;
5245;SDS011;54412;51.206;6.888;2023-12-20T01:41:02;18.70;;;12.90;;
5245;SDS011;54412;51.206;6.888;2023-12-20T01:43:29;24.97;;;13.33;;
5245;SDS011;54412;51.206;6.888;2023-12-20T01:45:58;23.07;;;12.77;;
5245;SDS011;54412;51.206;6.888;2023-12-20T01:48:25;21.37;;;12.60;;
5245;SDS011;54412;51.206;6.888;2023-12-20T01:50:53;21.67;;;12.10;;
5245;SDS011;54412;51.206;6.888;2023-12-20T01:53:19;15.67;;;11.60;;
5245;SDS011;54412;51.206;6.888;2023-12-20T01:55:48;20.97;;;13.37;;
5245;SDS011;54412;51.206;6.888;2023-12-20T01:58:19;20.80;;;13.53;;
5245;SDS011;54412;51.206;6.888;2023-12-20T02:00:46;18.57;;;12.30;;
5245;SDS011;54412;51.206;6.888;2023-12-20T02:03:12;23.23;;;11.67;;
5245;SDS011;54412;51.206;6.888;2023-12-20T02:05:38;19.40;;;13.53;;
5245;SDS011;54412;51.206;6.888;2023-12-20T02:08:05;21.40;;;12.10;;
5245;SDS011;54412;51.206;6.888;2023-12-20T02:10:31;22.63;;;11.70;;
5245;SDS011;54412;51.206;6.888;2023-12-20T02:12:57;19.83;;;10.40;;
5245;SDS011;54412;51.206;6.888;2023-12-20T02:15:23;14.23;;;10.37;;
5245;SDS011;54412;51.206;6.888;2023-12-20T02:17:49;18.40;;;10.87;;
5245;SDS011;54412;51.206;6.888;2023-12-20T02:20:16;19.83;;;10.67;;
5245;SDS011;54412;51.206;6.888;2023-12-20T02:22:41;11.43;;;8.70;;
5245;SDS011;54412;51.206;6.888;2023-12-20T02:25:07;24.40;;;9.50;;
5245;SDS011;54412;51.206;6.888;2023-12-20T02:27:33;15.00;;;9.10;;
5245;SDS011;54412;51.206;6.888;2023-12-20T02:30:00;18.40;;;10.17;;
5245;SDS011;54412;51.206;6.888;2023-12-20T02:32:26;22.27;;;10.47;;
5245;SDS011;54412;51.206;6.888;2023-12-20T02:34:52;23.50;;;9.70;;
5245;SDS011;54412;51.206;6.888;2023-12-20T02:37:20;21.47;;;8.63;;
5245;SDS011;54412;51.206;6.888;2023-12-20T02:39:46;18.60;;;8.90;;
5245;SDS011;54412;51.206;6.888;2023-12-20T02:42:12;18.90;;;8.13;;
5245;SDS011;54412;51.206;6.888;2023-12-20T02:44:38;22.37;;;7.90;;
5245;SDS011;54412;51.206;6.888;2023-12-20T02:47:04;18.10;;;8.33;;
5245;SDS011;54412;51.206;6.888;2023-12-20T02:49:30;26.47;;;8.57;;
5245;SDS011;54412;51.206;6.888;2023-12-20T02:51:55;23.40;;;7.83;;
5245;SDS011;54412;51.206;6.888;2023-12-20T02:54:21;11.40;;;7.30;;
5245;SDS011;54412;51.206;6.888;2023-12-20T02:56:47;17.17;;;8.30;;
5245;SDS011;54412;51.206;6.888;2023-12-20T02:59:13;14.50;;;7.43;;
5245;SDS011;54412;51.206;6.888;2023-12-20T03:01:42;19.83;;;6.90;;
5245;SDS011;54412;51.206;6.888;2023-12-20T03:04:10;13.20;;;5.90;;
5245;SDS011;54412;51.206;6.888;2023-12-20T03:06:36;11.20;;;5.20;;
5245;SDS011;54412;51.206;6.888;2023-12-20T03:09:02;13.63;;;6.40;;
5245;SDS011;54412;51.206;6.888;2023-12-20T03:11:28;13.13;;;4.73;;
5245;SDS011;54412;51.206;6.888;2023-12-20T03:13:54;20.57;;;5.80;;
5245;SDS011;54412;51.206;6.888;2023-12-20T03:16:20;19.47;;;5.57;;
5245;SDS011;54412;51.206;6.888;2023-12-20T03:18:46;15.00;;;5.43;;
5245;SDS011;54412;51.206;6.888;2023-12-20T03:21:11;10.00;;;4.87;;
5245;SDS011;54412;51.206;6.888;2023-12-20T03:23:37;14.57;;;3.63;;
5245;SDS011;54412;51.206;6.888;2023-12-20T03:26:03;22.43;;;5.57;;
5245;SDS011;54412;51.206;6.888;2023-12-20T03:28:32;16.10;;;3.97;;
5245;SDS011;54412;51.206;6.888;2023-12-20T03:30:58;18.70;;;4.53;;
5245;SDS011;54412;51.206;6.888;2023-12-20T03:33:23;12.43;;;4.40;;
5245;SDS011;54412;51.206;6.888;2023-12-20T03:35:49;12.93;;;4.40;;
5245;SDS011;54412;51.206;6.888;2023-12-20T03:38:14;22.63;;;4.97;;
5245;SDS011;54412;51.206;6.888;2023-12-20T03:40:40;10.60;;;4.20;;
5245;SDS011;54412;51.206;6.888;2023-12-20T03:43:06;18.67;;;5.20;;
5245;SDS011;54412;51.206;6.888;2023-12-20T03:45:31;15.07;;;4.43;;
5245;SDS011;54412;51.206;6.888;2023-12-20T03:47:57;20.03;;;5.20;;
5245;SDS011;54412;51.206;6.888;2023-12-20T03:50:23;17.50;;;4.27;;
5245;SDS011;54412;51.206;6.888;2023-12-20T03:52:48;9.47;;;3.70;;
5245;SDS011;54412;51.206;6.888;2023-12-20T03:55:14;17.77;;;4.87;;
5245;SDS011;54412;51.206;6.888;2023-12-20T03:57:41;14.37;;;4.00;;
5245;SDS011;54412;51.206;6.888;2023-12-20T04:00:07;20.50;;;4.40;;
5245;SDS011;54412;51.206;6.888;2023-12-20T04:02:36;26.47;;;4.50;;
5245;SDS011;54412;51.206;6.888;2023-12-20T04:05:03;18.07;;;4.47;;
5245;SDS011;54412;51.206;6.888;2023-12-20T04:07:30;21.00;;;4.33;;
5245;SDS011;54412;51.206;6.888;2023-12-20T04:09:56;9.67;;;4.17;;
5245;SDS011;54412;51.206;6.888;2023-12-20T04:12:21;13.10;;;3.73;;
5245;SDS011;54412;51.206;6.888;2023-12-20T04:14:47;19.57;;;3.87;;
5245;SDS011;54412;51.206;6.888;2023-12-20T04:17:13;16.40;;;4.57;;
5245;SDS011;54412;51.206;6.888;2023-12-20T04:19:41;18.90;;;4.20;;
5245;SDS011;54412;51.206;6.888;2023-12-20T04:22:07;22.70;;;5.40;;
5245;SDS011;54412;51.206;6.888;2023-12-20T04:24:33;16.53;;;4.70;;
5245;SDS011;54412;51.206;6.888;2023-12-20T04:26:59;14.60;;;4.00;;
5245;SDS011;54412;51.206;6.888;2023-12-20T04:29:26;15.80;;;4.30;;
5245;SDS011;54412;51.206;6.888;2023-12-20T04:31:52;21.90;;;4.67;;
5245;SDS011;54412;51.206;6.888;2023-12-20T04:34:17;21.27;;;4.53;;
5245;SDS011;54412;51.206;6.888;2023-12-20T04:36:43;13.13;;;4.97;;
5245;SDS011;54412;51.206;6.888;2023-12-20T04:39:11;18.70;;;4.87;;
5245;SDS011;54412;51.206;6.888;2023-12-20T04:41:38;19.93;;;4.87;;
5245;SDS011;54412;51.206;6.888;2023-12-20T04:44:04;19.43;;;5.50;;
5245;SDS011;54412;51.206;6.888;2023-12-20T04:46:29;18.00;;;4.77;;
5245;SDS011;54412;51.206;6.888;2023-12-20T04:48:55;11.27;;;4.03;;
5245;SDS011;54412;51.206;6.888;2023-12-20T04:51:21;21.93;;;5.03;;
5245;SDS011;54412;51.206;6.888;2023-12-20T04:53:46;12.57;;;4.80;;
5245;SDS011;54412;51.206;6.888;2023-12-20T04:56:12;16.50;;;4.60;;
5245;SDS011;54412;51.206;6.888;2023-12-20T04:58:38;17.27;;;4.90;;
5245;SDS011;54412;51.206;6.888;2023-12-20T05:01:05;20.37;;;4.90;;
5245;SDS011;54412;51.206;6.888;2023-12-20T05:03:33;20.60;;;6.00;;
5245;SDS011;54412;51.206;6.888;2023-12-20T05:05:58;25.03;;;5.80;;
5245;SDS011;54412;51.206;6.888;2023-12-20T05:08:24;22.80;;;5.47;;
5245;SDS011;54412;51.206;6.888;2023-12-20T05:10:50;21.27;;;6.97;;
5245;SDS011;54412;51.206;6.888;2023-12-20T05:13:19;22.97;;;5.30;;
5245;SDS011;54412;51.206;6.888;2023-12-20T05:15:45;14.97;;;5.40;;
5245;SDS011;54412;51.206;6.888;2023-12-20T05:18:11;14.63;;;5.40;;
5245;SDS011;54412;51.206;6.888;2023-12-20T05:20:38;22.73;;;5.07;;
5245;SDS011;54412;51.206;6.888;2023-12-20T05:23:04;14.90;;;6.23;;
5245;SDS011;54412;51.206;6.888;2023-12-20T05:25:30;19.03;;;5.63;;
5245;SDS011;54412;51.206;6.888;2023-12-20T05:27:56;23.90;;;6.10;;
5245;SDS011;54412;51.206;6.888;2023-12-20T05:30:21;15.30;;;5.10;;
5245;SDS011;54412;51.206;6.888;2023-12-20T05:32:47;11.37;;;4.23;;
5245;SDS011;54412;51.206;6.888;2023-12-20T05:35:13;24.07;;;5.83;;
5245;SDS011;54412;51.206;6.888;2023-12-20T05:37:40;12.17;;;5.03;;
5245;SDS011;54412;51.206;6.888;2023-12-20T05:40:06;25.57;;;5.87;;
5245;SDS011;54412;51.206;6.888;2023-12-20T05:42:35;18.87;;;5.40;;
5245;SDS011;54412;51.206;6.888;2023-12-20T05:45:02;25.33;;;5.90;;
5245;SDS011;54412;51.206;6.888;2023-12-20T05:47:29;17.80;;;5.13;;
5245;SDS011;54412;51.206;6.888;2023-12-20T05:49:55;27.43;;;5.53;;
5245;SDS011;54412;51.206;6.888;2023-12-20T05:52:20;20.93;;;5.87;;
5245;SDS011;54412;51.206;6.888;2023-12-20T05:54:46;22.77;;;5.37;;
5245;SDS011;54412;51.206;6.888;2023-12-20T05:57:12;16.37;;;5.07;;
5245;SDS011;54412;51.206;6.888;2023-12-20T05:59:38;16.03;;;5.63;;
5245;SDS011;54412;51.206;6.888;2023-12-20T06:02:04;18.40;;;4.90;;
5245;SDS011;54412;51.206;6.888;2023-12-20T06:04:30;22.60;;;5.53;;
5245;SDS011;54412;51.206;6.888;2023-12-20T06:06:56;16.63;;;5.30;;
5245;SDS011;54412;51.206;6.888;2023-12-20T06:09:22;15.53;;;5.13;;
5245;SDS011;54412;51.206;6.888;2023-12-20T06:11:48;13.87;;;5.10;;
5245;SDS011;54412;51.206;6.888;2023-12-20T06:14:15;10.80;;;4.57;;
5245;SDS011;54412;51.206;6.888;2023-12-20T06:16:41;22.90;;;5.73;;
5245;SDS011;54412;51.206;6.888;2023-12-20T06:19:06;16.57;;;4.40;;
5245;SDS011;54412;51.206;6.888;2023-12-20T06:21:32;25.10;;;5.10;;
5245;SDS011;54412;51.206;6.888;2023-12-20T06:23:58;23.70;;;5.40;;
5245;SDS011;54412;51.206;6.888;2023-12-20T06:26:25;18.37;;;4.77;;
5245;SDS011;54412;51.206;6.888;2023-12-20T06:28:50;16.03;;;4.83;;
5245;SDS011;54412;51.206;6.888;2023-12-20T06:31:16;12.83;;;5.43;;
5245;SDS011;54412;51.206;6.888;2023-12-20T06:33:42;26.87;;;5.70;;
5245;SDS011;54412;51.206;6.888;2023-12-20T06:36:12;19.30;;;4.97;;
5245;SDS011;54412;51.206;6.888;2023-12-20T06:38:38;20.43;;;4.77;;
5245;SDS011;54412;51.206;6.888;2023-12-20T06:41:04;26.27;;;4.77;;
5245;SDS011;54412;51.206;6.888;2023-12-20T06:43:31;19.00;;;5.70;;
5245;SDS011;54412;51.206;6.888;2023-12-20T06:45:57;13.40;;;5.03;;
5245;SDS011;54412;51.206;6.888;2023-12-20T06:48:23;20.63;;;6.93;;
5245;SDS011;54412;51.206;6.888;2023-12-20T06:50:49;28.13;;;5.77;;
5245;SDS011;54412;51.206;6.888;2023-12-20T06:53:15;13.27;;;5.33;;
5245;SDS011;54412;51.206;6.888;2023-12-20T06:55:41;21.53;;;5.50;;
5245;SDS011;54412;51.206;6.888;2023-12-20T06:58:07;24.17;;;5.50;;
5245;SDS011;54412;51.206;6.888;2023-12-20T07:00:33;22.00;;;5.93;;
5245;SDS011;54412;51.206;6.888;2023-12-20T07:02:59;28.30;;;6.93;;
5245;SDS011;54412;51.206;6.888;2023-12-20T07:05:25;17.90;;;6.53;;
5245;SDS011;54412;51.206;6.888;2023-12-20T07:07:51;25.10;;;5.83;;
5245;SDS011;54412;51.206;6.888;2023-12-20T07:10:17;22.00;;;5.80;;
5245;SDS011;54412;51.206;6.888;2023-12-20T07:12:43;19.97;;;5.70;;
5245;SDS011;54412;51.206;6.888;2023-12-20T07:15:09;14.30;;;5.77;;
5245;SDS011;54412;51.206;6.888;2023-12-20T07:17:35;25.70;;;5.50;;
5245;SDS011;54412;51.206;6.888;2023-12-20T07:20:02;22.00;;;5.90;;
5245;SDS011;54412;51.206;6.888;2023-12-20T07:22:32;13.47;;;5.53;;
5245;SDS011;54412;51.206;6.888;2023-12-20T07:24:59;24.13;;;6.53;;
5245;SDS011;54412;51.206;6.888;2023-12-20T07:27:25;19.77;;;5.77;;
5245;SDS011;54412;51.206;6.888;2023-12-20T07:29:51;27.97;;;4.93;;
5245;SDS011;54412;51.206;6.888;2023-12-20T07:32:17;15.93;;;4.87;;
5245;SDS011;54412;51.206;6.888;2023-12-20T07:34:43;14.30;;;4.63;;
5245;SDS011;54412;51.206;6.888;2023-12-20T07:37:09;12.60;;;4.80;;
5245;SDS011;54412;51.206;6.888;2023-12-20T07:39:39;21.93;;;5.97;;
5245;SDS011;54412;51.206;6.888;2023-12-20T07:42:06;23.73;;;5.83;;
5245;SDS011;54412;51.206;6.888;2023-12-20T07:44:34;11.77;;;5.40;;
5245;SDS011;54412;51.206;6.888;2023-12-20T07:47:03;17.70;;;5.43;;
5245;SDS011;54412;51.206;6.888;2023-12-20T07:49:30;23.63;;;4.90;;
5245;SDS011;54412;51.206;6.888;2023-12-20T07:51:56;17.87;;;6.13;;
5245;SDS011;54412;51.206;6.888;2023-12-20T07:54:22;19.30;;;5.53;;
5245;SDS011;54412;51.206;6.888;2023-12-20T07:56:48;24.10;;;6.00;;
5245;SDS011;54412;51.206;6.888;2023-12-20T07:59:14;20.77;;;5.83;;
5245;SDS011;54412;51.206;6.888;2023-12-20T08:01:40;20.93;;;5.50;;
5245;SDS011;54412;51.206;6.888;2023-12-20T08:04:07;20.43;;;5.70;;
5245;SDS011;54412;51.206;6.888;2023-12-20T08:06:33;19.43;;;6.37;;
5245;SDS011;54412;51.206;6.888;2023-12-20T08:08:58;16.47;;;5.37;;
5245;SDS011;54412;51.206;6.888;2023-12-20T08:11:24;20.83;;;5.90;;
5245;SDS011;54412;51.206;6.888;2023-12-20T08:13:49;22.20;;;6.03;;
5245;SDS011;54412;51.206;6.888;2023-12-20T08:16:16;20.03;;;5.40;;
5245;SDS011;54412;51.206;6.888;2023-12-20T08:18:42;19.47;;;5.17;;
5245;SDS011;54412;51.206;6.888;2023-12-20T08:21:08;29.47;;;5.60;;
5245;SDS011;54412;51.206;6.888;2023-12-20T08:23:34;25.60;;;5.97;;
5245;SDS011;54412;51.206;6.888;2023-12-20T08:26:06;17.87;;;5.57;;
5245;SDS011;54412;51.206;6.888;2023-12-20T08:28:33;24.20;;;5.60;;
5245;SDS011;54412;51.206;6.888;2023-12-20T08:31:00;18.53;;;4.97;;
5245;SDS011;54412;51.206;6.888;2023-12-20T08:33:26;21.93;;;5.63;;
5245;SDS011;54412;51.206;6.888;2023-12-20T08:35:51;23.87;;;6.33;;
5245;SDS011;54412;51.206;6.888;2023-12-20T08:38:17;16.30;;;5.13;;
5245;SDS011;54412;51.206;6.888;2023-12-20T08:40:43;17.00;;;6.03;;
5245;SDS011;54412;51.206;6.888;2023-12-20T08:43:09;18.27;;;5.57;;
5245;SDS011;54412;51.206;6.888;2023-12-20T08:45:35;21.33;;;5.13;;
5245;SDS011;54412;51.206;6.888;2023-12-20T08:48:01;17.37;;;5.00;;
5245;SDS011;54412;51.206;6.888;2023-12-20T08:50:28;22.10;;;4.83;;
5245;SDS011;54412;51.206;6.888;2023-12-20T08:52:54;22.40;;;5.80;;
5245;SDS011;54412;51.206;6.888;2023-12-20T08:55:20;25.57;;;6.33;;
5245;SDS011;54412;51.206;6.888;2023-12-20T08:57:46;16.33;;;5.10;;
5245;SDS011;54412;51.206;6.888;2023-12-20T09:00:12;16.87;;;5.97;;
5245;SDS011;54412;51.206;6.888;2023-12-20T09:02:38;16.03;;;5.13;;
5245;SDS011;54412;51.206;6.888;2023-12-20T09:05:04;13.73;;;4.70;;
5245;SDS011;54412;51.206;6.888;2023-12-20T09:07:30;25.77;;;5.87;;
5245;SDS011;54412;51.206;6.888;2023-12-20T09:09:56;24.97;;;5.33;;
5245;SDS011;54412;51.206;6.888;2023-12-20T09:12:23;19.53;;;5.33;;
5245;SDS011;54412;51.206;6.888;2023-12-20T09:14:50;22.90;;;5.87;;
5245;SDS011;54412;51.206;6.888;2023-12-20T09:17:17;14.33;;;4.73;;
5245;SDS011;54412;51.206;6.888;2023-12-20T09:19:44;23.77;;;5.00;;
5245;SDS011;54412;51.206;6.888;2023-12-20T09:22:10;20.90;;;5.53;;
5245;SDS011;54412;51.206;6.888;2023-12-20T09:24:36;15.63;;;4.70;;
5245;SDS011;54412;51.206;6.888;2023-12-20T09:27:03;15.30;;;4.23;;
5245;SDS011;54412;51.206;6.888;2023-12-20T09:29:30;18.10;;;4.73;;
5245;SDS011;54412;51.206;6.888;2023-12-20T09:31:56;27.70;;;6.53;;
5245;SDS011;54412;51.206;6.888;2023-12-20T09:34:22;17.67;;;4.67;;
5245;SDS011;54412;51.206;6.888;2023-12-20T09:36:49;11.07;;;4.20;;
5245;SDS011;54412;51.206;6.888;2023-12-20T09:39:16;14.50;;;4.10;;
5245;SDS011;54412;51.206;6.888;2023-12-20T09:42:02;16.07;;;4.50;;
5245;SDS011;54412;51.206;6.888;2023-12-20T09:44:30;13.17;;;4.40;;
5245;SDS011;54412;51.206;6.888;2023-12-20T09:46:57;14.20;;;4.20;;
5245;SDS011;54412;51.206;6.888;2023-12-20T09:49:25;14.17;;;4.30;;
5245;SDS011;54412;51.206;6.888;2023-12-20T09:51:53;19.33;;;4.97;;
5245;SDS011;54412;51.206;6.888;2023-12-20T09:54:20;17.73;;;4.73;;
5245;SDS011;54412;51.206;6.888;2023-12-20T09:56:47;17.80;;;4.30;;
5245;SDS011;54412;51.206;6.888;2023-12-20T09:59:14;23.90;;;4.40;;
5245;SDS011;54412;51.206;6.888;2023-12-20T10:01:40;22.60;;;5.00;;
5245;SDS011;54412;51.206;6.888;2023-12-20T10:04:08;18.37;;;4.40;;
5245;SDS011;54412;51.206;6.888;2023-12-20T10:06:40;21.43;;;4.50;;
5245;SDS011;54412;51.206;6.888;2023-12-20T10:09:08;19.60;;;4.40;;
5245;SDS011;54412;51.206;6.888;2023-12-20T10:11:35;16.17;;;4.50;;
5245;SDS011;54412;51.206;6.888;2023-12-20T10:14:05;19.83;;;4.37;;
5245;SDS011;54412;51.206;6.888;2023-12-20T10:16:32;16.23;;;5.37;;
5245;SDS011;54412;51.206;6.888;2023-12-20T10:18:59;17.90;;;4.80;;
5245;SDS011;54412;51.206;6.888;2023-12-20T10:21:26;22.00;;;4.80;;
5245;SDS011;54412;51.206;6.888;2023-12-20T10:23:55;14.37;;;4.70;;
5245;SDS011;54412;51.206;6.888;2023-12-20T10:26:23;19.33;;;4.10;;
5245;SDS011;54412;51.206;6.888;2023-12-20T10:28:52;14.30;;;4.03;;
5245;SDS011;54412;51.206;6.888;2023-12-20T10:31:29;25.30;;;4.80;;
5245;SDS011;54412;51.206;6.888;2023-12-20T10:33:57;14.60;;;4.20;;
5245;SDS011;54412;51.206;6.888;2023-12-20T10:36:25;12.23;;;4.07;;
5245;SDS011;54412;51.206;6.888;2023-12-20T10:38:53;11.00;;;3.17;;
5245;SDS011;54412;51.206;6.888;2023-12-20T10:41:31;23.57;;;4.23;;
5245;SDS011;54412;51.206;6.888;2023-12-20T10:43:59;9.50;;;3.20;;
5245;SDS011;54412;51.206;6.888;2023-12-20T10:46:30;11.93;;;4.40;;
5245;SDS011;54412;51.206;6.888;2023-12-20T10:48:57;20.83;;;4.10;;
5245;SDS011;54412;51.206;6.888;2023-12-20T10:51:24;18.80;;;4.47;;
5245;SDS011;54412;51.206;6.888;2023-12-20T10:53:55;24.33;;;4.90;;
5245;SDS011;54412;51.206;6.888;2023-12-20T10:56:21;15.53;;;4.93;;
5245;SDS011;54412;51.206;6.888;2023-12-20T10:58:48;19.63;;;5.30;;
5245;SDS011;54412;51.206;6.888;2023-12-20T11:01:18;16.07;;;5.20;;
5245;SDS011;54412;51.206;6.888;2023-12-20T11:03:48;15.37;;;4.23;;
5245;SDS011;54412;51.206;6.888;2023-12-20T11:06:22;15.93;;;3.93;;
5245;SDS011;54412;51.206;6.888;2023-12-20T11:14:27;20.30;;;4.20;;
5245;SDS011;54412;51.206;6.888;2023-12-20T11:17:06;16.97;;;4.13;;
5245;SDS011;54412;51.206;6.888;2023-12-20T11:22:21;13.03;;;5.10;;
5245;SDS011;54412;51.206;6.888;2023-12-20T11:24:50;15.93;;;3.60;;
5245;SDS011;54412;51.206;6.888;2023-12-20T11:27:18;14.27;;;4.37;;
5245;SDS011;54412;51.206;6.888;2023-12-20T11:29:51;15.57;;;4.30;;
5245;SDS011;54412;51.206;6.888;2023-12-20T11:34:52;10.87;;;3.67;;
5245;SDS011;54412;51.206;6.888;2023-12-20T11:37:20;17.23;;;5.07;;
5245;SDS011;54412;51.206;6.888;2023-12-20T11:39:56;15.53;;;4.00;;
5245;SDS011;54412;51.206;6.888;2023-12-20T11:42:27;15.77;;;4.27;;
5245;SDS011;54412;51.206;6.888;2023-12-20T11:44:53;17.70;;;4.47;;
5245;SDS011;54412;51.206;6.888;2023-12-20T11:47:18;10.97;;;3.37;;
5245;SDS011;54412;51.206;6.888;2023-12-20T11:49:48;16.73;;;3.97;;
5245;SDS011;54412;51.206;6.888;2023-12-20T11:52:14;21.93;;;5.20;;
5245;SDS011;54412;51.206;6.888;2023-12-20T11:54:39;18.23;;;3.77;;
5245;SDS011;54412;51.206;6.888;2023-12-20T11:57:05;11.47;;;3.17;;
5245;SDS011;54412;51.206;6.888;2023-12-20T11:59:31;23.13;;;4.70;;
5245;SDS011;54412;51.206;6.888;2023-12-20T12:01:56;14.33;;;4.67;;
5245;SDS011;54412;51.206;6.888;2023-12-20T12:04:25;23.97;;;4.77;;
5245;SDS011;54412;51.206;6.888;2023-12-20T12:06:53;13.20;;;4.50;;
5245;SDS011;54412;51.206;6.888;2023-12-20T12:09:19;17.60;;;3.97;;
5245;SDS011;54412;51.206;6.888;2023-12-20T12:11:44;22.53;;;4.00;;
5245;SDS011;54412;51.206;6.888;2023-12-20T12:14:10;10.53;;;3.60;;
5245;SDS011;54412;51.206;6.888;2023-12-20T12:16:36;15.37;;;3.83;;
5245;SDS011;54412;51.206;6.888;2023-12-20T12:19:02;15.43;;;4.30;;
5245;SDS011;54412;51.206;6.888;2023-12-20T12:21:29;13.20;;;3.90;;
5245;SDS011;54412;51.206;6.888;2023-12-20T12:24:05;21.83;;;4.40;;
5245;SDS011;54412;51.206;6.888;2023-12-20T12:26:34;12.03;;;3.60;;
5245;SDS011;54412;51.206;6.888;2023-12-20T12:29:00;14.27;;;3.67;;
5245;SDS011;54412;51.206;6.888;2023-12-20T12:31:26;12.80;;;4.30;;
5245;SDS011;54412;51.206;6.888;2023-12-20T12:33:51;15.30;;;4.30;;
5245;SDS011;54412;51.206;6.888;2023-12-20T12:36:17;20.80;;;4.20;;
5245;SDS011;54412;51.206;6.888;2023-12-20T12:38:43;15.10;;;3.50;;
5245;SDS011;54412;51.206;6.888;2023-12-20T12:41:09;10.50;;;4.30;;
5245;SDS011;54412;51.206;6.888;2023-12-20T12:43:37;10.87;;;3.87;;
5245;SDS011;54412;51.206;6.888;2023-12-20T12:46:03;14.17;;;4.23;;
5245;SDS011;54412;51.206;6.888;2023-12-20T12:48:29;24.63;;;4.53;;
5245;SDS011;54412;51.206;6.888;2023-12-20T12:50:55;23.07;;;4.30;;
5245;SDS011;54412;51.206;6.888;2023-12-20T12:53:24;13.57;;;4.00;;
5245;SDS011;54412;51.206;6.888;2023-12-20T12:55:51;18.77;;;3.70;;
5245;SDS011;54412;51.206;6.888;2023-12-20T12:58:19;21.57;;;4.30;;
5245;SDS011;54412;51.206;6.888;2023-12-20T13:00:44;14.43;;;3.57;;
5245;SDS011;54412;51.206;6.888;2023-12-20T13:03:10;17.10;;;4.30;;
5245;SDS011;54412;51.206;6.888;2023-12-20T13:05:36;17.17;;;4.70;;
5245;SDS011;54412;51.206;6.888;2023-12-20T13:08:02;19.93;;;4.47;;
5245;SDS011;54412;51.206;6.888;2023-12-20T13:10:29;18.10;;;4.73;;
5245;SDS011;54412;51.206;6.888;2023-12-20T13:12:54;18.17;;;4.60;;
5245;SDS011;54412;51.206;6.888;2023-12-20T13:15:20;17.30;;;5.10;;
5245;SDS011;54412;51.206;6.888;2023-12-20T13:17:46;20.83;;;5.70;;
5245;SDS011;54412;51.206;6.888;2023-12-20T13:20:11;26.60;;;4.93;;
5245;SDS011;54412;51.206;6.888;2023-12-20T13:22:37;17.77;;;4.50;;
5245;SDS011;54412;51.206;6.888;2023-12-20T13:25:03;16.83;;;5.33;;
5245;SDS011;54412;51.206;6.888;2023-12-20T13:27:29;15.60;;;4.80;;
5245;SDS011;54412;51.206;6.888;2023-12-20T13:29:54;11.43;;;5.03;;
5245;SDS011;54412;51.206;6.888;2023-12-20T13:32:20;23.53;;;4.97;;
5245;SDS011;54412;51.206;6.888;2023-12-20T13:34:45;13.90;;;5.03;;
5245;SDS011;54412;51.206;6.888;2023-12-20T13:37:11;18.17;;;5.87;;
5245;SDS011;54412;51.206;6.888;2023-12-20T13:39:37;16.67;;;5.30;;
5245;SDS011;54412;51.206;6.888;2023-12-20T13:42:04;29.60;;;6.67;;
5245;SDS011;54412;51.206;6.888;2023-12-20T13:44:30;23.73;;;6.57;;
5245;SDS011;54412;51.206;6.888;2023-12-20T13:46:56;14.07;;;5.43;;
5245;SDS011;54412;51.206;6.888;2023-12-20T13:49:21;15.17;;;6.00;;
5245;SDS011;54412;51.206;6.888;2023-12-20T13:51:50;12.70;;;4.60;;
5245;SDS011;54412;51.206;6.888;2023-12-20T13:54:16;16.60;;;5.00;;
5245;SDS011;54412;51.206;6.888;2023-12-20T13:56:45;15.20;;;5.87;;
5245;SDS011;54412;51.206;6.888;2023-12-20T13:59:11;14.47;;;5.67;;
5245;SDS011;54412;51.206;6.888;2023-12-20T14:01:37;17.87;;;5.63;;
5245;SDS011;54412;51.206;6.888;2023-12-20T14:04:03;15.50;;;4.90;;
5245;SDS011;54412;51.206;6.888;2023-12-20T14:06:29;18.30;;;5.30;;
5245;SDS011;54412;51.206;6.888;2023-12-20T14:08:55;14.73;;;5.20;;
5245;SDS011;54412;51.206;6.888;2023-12-20T14:11:20;16.80;;;5.13;;
5245;SDS011;54412;51.206;6.888;2023-12-20T14:13:46;20.37;;;5.07;;
5245;SDS011;54412;51.206;6.888;2023-12-20T14:16:12;16.23;;;5.40;;
5245;SDS011;54412;51.206;6.888;2023-12-20T14:18:38;12.73;;;4.10;;
5245;SDS011;54412;51.206;6.888;2023-12-20T14:21:05;10.07;;;4.03;;
5245;SDS011;54412;51.206;6.888;2023-12-20T14:23:31;18.10;;;4.53;;
5245;SDS011;54412;51.206;6.888;2023-12-20T14:25:58;18.97;;;5.20;;
5245;SDS011;54412;51.206;6.888;2023-12-20T14:28:25;12.60;;;4.30;;
5245;SDS011;54412;51.206;6.888;2023-12-20T14:30:51;13.03;;;4.77;;
5245;SDS011;54412;51.206;6.888;2023-12-20T14:33:16;22.83;;;5.17;;
5245;SDS011;54412;51.206;6.888;2023-12-20T14:35:44;12.83;;;4.50;;
5245;SDS011;54412;51.206;6.888;2023-12-20T14:38:10;13.70;;;5.30;;
5245;SDS011;54412;51.206;6.888;2023-12-20T14:40:38;15.37;;;3.97;;
5245;SDS011;54412;51.206;6.888;2023-12-20T14:43:04;21.80;;;5.20;;
5245;SDS011;54412;51.206;6.888;2023-12-20T14:45:29;24.30;;;7.97;;
5245;SDS011;54412;51.206;6.888;2023-12-20T14:47:55;9.77;;;4.80;;
5245;SDS011;54412;51.206;6.888;2023-12-20T14:50:21;14.00;;;4.83;;
5245;SDS011;54412;51.206;6.888;2023-12-20T14:52:47;8.37;;;4.23;;
5245;SDS011;54412;51.206;6.888;2023-12-20T14:55:13;16.27;;;4.33;;